createdAt,value
2023-01-13T16:57:46.188Z,9.34
2023-01-13T17:00:14.983Z,9.34
2023-01-13T17:02:42.257Z,9.19
2023-01-13T17:05:10.835Z,9.29
2023-01-13T17:07:38.301Z,9.12
2023-01-13T17:10:06.722Z,9.25
2023-01-13T17:12:34.103Z,9.31
2023-01-13T17:15:03.473Z,9.37
2023-01-13T17:17:32.801Z,9.78
2023-01-13T17:20:00.249Z,9.78
2023-01-13T17:22:30.945Z,9.53
2023-01-13T17:24:58.248Z,9.48
2023-01-13T17:27:25.633Z,9.32
2023-01-13T17:29:53.183Z,9.28
2023-01-13T17:32:22.094Z,9.33
2023-01-13T17:34:49.456Z,9.27
2023-01-13T17:37:19.860Z,9.29
2023-01-13T17:39:47.223Z,9.27
2023-01-13T17:42:15.727Z,9.34
2023-01-13T17:44:43.291Z,9.25
2023-01-13T17:47:10.741Z,9.23
2023-01-13T17:49:39.719Z,9.24
2023-01-13T17:52:07.221Z,9.20
2023-01-13T17:54:34.623Z,9.16
2023-01-13T17:57:05.969Z,9.15
2023-01-13T17:59:33.933Z,9.22
2023-01-13T18:02:02.757Z,9.18
2023-01-13T18:04:30.419Z,9.22
2023-01-13T18:07:02.547Z,9.15
2023-01-13T18:09:30.341Z,9.29
2023-01-13T18:12:00.684Z,9.38
2023-01-13T18:14:28.218Z,9.33
2023-01-13T18:16:55.731Z,9.15
2023-01-13T18:19:24.846Z,9.05
2023-01-13T18:21:58.992Z,9.06
2023-01-13T18:24:28.064Z,8.91
2023-01-13T18:26:55.733Z,8.88
2023-01-13T18:29:30.563Z,8.92
2023-01-13T18:31:59.739Z,8.88
2023-01-13T18:34:27.254Z,8.94
2023-01-13T18:36:56.818Z,8.95
2023-01-13T18:39:24.170Z,9.08
2023-01-13T18:41:53.291Z,9.03
2023-01-13T18:44:22.054Z,9.03
2023-01-13T18:46:49.828Z,8.98
2023-01-13T18:49:17.367Z,9.05
2023-01-13T18:51:44.770Z,9.16
2023-01-13T18:54:12.007Z,8.93
2023-01-13T18:56:42.099Z,8.92
2023-01-13T18:59:11.049Z,8.86
2023-01-13T19:01:44.401Z,8.89
2023-01-13T19:04:14.949Z,9.00
2023-01-13T19:06:48.830Z,8.95
2023-01-13T19:09:18.133Z,8.88
2023-01-13T19:11:46.256Z,8.75
2023-01-13T19:14:15.629Z,8.87
2023-01-13T19:16:43.009Z,8.80
2023-01-13T19:19:12.739Z,8.81
2023-01-13T19:21:40.350Z,8.79
2023-01-13T19:24:08.195Z,8.88
2023-01-13T19:26:35.883Z,8.76
2023-01-13T19:29:03.186Z,8.78
2023-01-13T19:31:31.918Z,8.70
2023-01-13T19:33:59.093Z,8.41
2023-01-13T19:36:26.421Z,8.24
2023-01-13T19:38:53.571Z,8.24
2023-01-13T19:41:23.093Z,8.09
2023-01-13T19:43:50.438Z,8.12
2023-01-13T19:46:17.688Z,7.84
2023-01-13T19:48:46.731Z,7.74
2023-01-13T19:51:14.032Z,7.73
2023-01-13T19:53:41.496Z,7.76
2023-01-13T19:56:12.832Z,7.87
2023-01-13T19:58:40.255Z,8.01
2023-01-13T20:01:07.643Z,7.95
2023-01-13T20:03:39.638Z,8.10
2023-01-13T20:06:12.078Z,8.07
2023-01-13T20:08:46.431Z,8.01
2023-01-13T20:11:16.554Z,7.99
2023-01-13T20:13:44.333Z,7.99
2023-01-13T20:16:14.151Z,7.99
2023-01-13T20:18:44.473Z,7.86
2023-01-13T20:21:13.994Z,7.94
2023-01-13T20:23:41.621Z,8.13
2023-01-13T20:26:09.121Z,8.04
2023-01-13T20:28:36.839Z,7.88
2023-01-13T20:31:07.032Z,7.95
2023-01-13T20:33:34.331Z,7.97
2023-01-13T20:36:01.814Z,7.99
2023-01-13T20:38:33.537Z,8.15
2023-01-13T20:41:01.246Z,8.09
2023-01-13T20:43:32.574Z,8.09
2023-01-13T20:46:00.233Z,8.10
2023-01-13T20:48:27.753Z,8.28
2023-01-13T20:50:55.372Z,7.99
2023-01-13T20:53:26.017Z,8.19
2023-01-13T20:55:54.894Z,8.17
2023-01-13T20:58:22.184Z,8.16
2023-01-13T21:00:52.638Z,8.14
2023-01-13T21:03:22.058Z,7.97
2023-01-13T21:05:49.627Z,7.88
2023-01-13T21:08:16.998Z,7.96
2023-01-13T21:10:44.454Z,7.99
2023-01-13T21:13:13.552Z,8.02
2023-01-13T21:15:40.993Z,7.96
2023-01-13T21:18:08.362Z,7.85
2023-01-13T21:20:36.552Z,7.82
2023-01-13T21:23:03.993Z,7.84
2023-01-13T21:25:32.065Z,7.58
2023-01-13T21:28:00.464Z,7.65
2023-01-13T21:30:29.231Z,7.61
2023-01-13T21:32:56.532Z,7.66
2023-01-13T21:35:23.774Z,7.79
2023-01-13T21:37:51.061Z,7.68
2023-01-13T21:40:18.594Z,7.87
2023-01-13T21:42:46.145Z,7.84
2023-01-13T21:45:13.415Z,7.79
2023-01-13T21:47:42.534Z,7.89
2023-01-13T21:50:11.608Z,7.83
2023-01-13T21:52:39.198Z,7.80
2023-01-13T21:55:07.055Z,7.81
2023-01-13T21:57:34.553Z,7.66
2023-01-13T22:00:01.942Z,7.74
2023-01-13T22:02:29.571Z,7.87
2023-01-13T22:04:58.915Z,7.80
2023-01-13T22:07:26.174Z,7.88
2023-01-13T22:09:53.666Z,7.82
2023-01-13T22:12:21.015Z,7.75
2023-01-13T22:14:48.336Z,7.80
2023-01-13T22:17:15.692Z,7.89
2023-01-13T22:19:43.195Z,7.59
2023-01-13T22:22:12.074Z,7.68
2023-01-13T22:24:39.257Z,7.78
2023-01-13T22:27:09.081Z,7.77
2023-01-13T22:29:37.695Z,7.56
2023-01-13T22:32:05.453Z,7.77
2023-01-13T22:34:32.667Z,7.81
2023-01-13T22:37:00.147Z,7.79
2023-01-13T22:39:28.996Z,7.70
2023-01-13T22:41:56.456Z,7.69
2023-01-13T22:44:23.915Z,7.62
2023-01-13T22:46:51.276Z,7.62
2023-01-13T22:49:18.715Z,7.69
2023-01-13T22:51:46.096Z,7.69
2023-01-13T22:54:13.515Z,7.65
2023-01-13T22:56:42.435Z,7.65
2023-01-13T22:59:10.891Z,7.61
2023-01-13T23:01:38.150Z,7.67
2023-01-13T23:04:05.835Z,7.69
2023-01-13T23:06:33.777Z,7.75
2023-01-13T23:09:01.161Z,7.69
2023-01-13T23:11:29.016Z,7.70
2023-01-13T23:14:01.916Z,7.76
2023-01-13T23:16:30.317Z,7.81
2023-01-13T23:18:58.020Z,7.75
2023-01-13T23:21:26.956Z,7.75
2023-01-13T23:23:54.519Z,7.70
2023-01-13T23:26:22.177Z,7.68
